GCFV Airport Information

Runway Information
Runway 01 Length 7874 ft width 148 ft
Elevation 37 ft Threshold 0 ft Heading 2
Runway 19 Length 7874 ft Width 148 ft
Elevation 75 ft Threshold 0 ft Heading 182
Airport Frequencies
Type APP Name CANARIAS A Frequency 129.3 MHZ
Type ATIS Name ATIS Frequency 118.65 MHZ
Type GND Name GND Frequency 121.7 MHZ
Type TWR Name TWR Frequency 118.5 MHZ
Airport Navaids
Type VOR-DME Name Fuerteventura Frequency 114100 KHZ
Airport Weather Information & NOTAM
ADDS - METARS form results

(0356 UTC 06 August 2021)
Data provider http://aviationweather.gov/metar/data/
 
METAR text: GCFV 060330Z AUTO 35016KT 9999 ////// 22/18 Q1016
Conditions at: GCFV (FUERTEVENTURA AR, ES) observed 0330 UTC 06 August 2021
Temperature: 22.0°C (72°F)
Dewpoint: 18.0°C (64°F) [RH = 78%]
Pressure (altimeter): 30.00 inches Hg (1016.0 mb)
Winds: from the N (350 degrees) at 18 MPH (16 knots; 8.2 m/s)
Visibility: 6 or more miles (10+ km)
Ceiling: unknown
Clouds: missing
Weather: no significant weather observed at this time

METAR text: GCFV 060300Z AUTO 36013KT 9999 ////// 22/19 Q1016
Conditions at: GCFV (FUERTEVENTURA AR, ES) observed 0300 UTC 06 August 2021
Temperature: 22.0°C (72°F)
Dewpoint: 19.0°C (66°F) [RH = 83%]
Pressure (altimeter): 30.00 inches Hg (1016.0 mb)
Winds: from the N (360 degrees) at 15 MPH (13 knots; 6.7 m/s)
Visibility: 6 or more miles (10+ km)
Ceiling: unknown
Clouds: missing
Weather: no significant weather observed at this time

Forecast for: GCFV (FUERTEVENTURA AR, ES)
Text: TAF GCFV 060200Z 0603/0703 35015KT 9999 FEW020 TX27/0614Z TN21/0606Z
Forecast period: 0300 UTC 06 August 2021 to 0300 UTC 07 August 2021
Forecast type: FROM: standard forecast or significant change
Winds: from the N (350 degrees) at 17 MPH (15 knots; 7.7 m/s)
Visibility: 6 or more miles (10+ km)
Ceiling: at least 12,000 feet AGL
Clouds: few clouds at 2000 feet AGL
Weather: no significant weather forecast for this period
Text: TEMPO 0615/0619 05015KT
Forecast period: 1500 to 1900 UTC 06 August 2021
Forecast type: TEMPORARY: The following changes expected for less than half the time period
Winds: from the NE (50 degrees) at 17 MPH (15 knots; 7.7 m/s)
Visibility: missing
Ceiling: unknown
Clouds: missing
Weather: no significant weather forecast for this period